METAR és
SPECI
METAR LHBP 290430Z 06008KT 040V100 5000 BR BKN010 02/M00 Q1020 NOSIG=
METAR LHBP 290400Z 07008KT 5000 BR BKN009 02/00 Q1020 NOSIG=
METAR LHBP 290330Z 07006KT 040V100 5000 BR BKN009 02/00 Q1020 NOSIG=
METAR LHBP 290300Z 06006KT 030V100 5000 BR BKN006 02/01 Q1020 NOSIG=
METAR LHBP 290230Z 06006KT 5000 BR SCT005 01/01 Q1021 NOSIG=
METAR LHBP 290200Z 07006KT 5000 BR FEW006 BKN018 02/01 Q1021 NOSIG=
TAF
TAF AMD LHBP 290000Z 2900/2924 07006KT 6000 SCT007 OVC016 TEMPO 2900/2924 2500 -RADZ BR SCT002 OVC005 PROB30 TEMPO 2903/2907 1200 -FZDZ BR OVC002=
GAMET
Nincs érvényes távirat! 
FAHU41 LHBM 281100
LHCC GAMET VALID 281200/281800 LHBP-
BUDAPEST FIR BLW FL100
SECN 1
SFC VIS: 0500-5000M DZ BR
0500-3000M FZDZ SN N OF N4715 AND E OF E01900
SIG CLD: BKN 0300-1000/6000 FT AGL
ICE: MOD SFC/6000 FT AGL N OF N4700 AND E OF E01830
MOD 8000/XXX FT AGL SE OF LINE
N4620 E02200 - N4545 E01830
SIGMETS APPLICABLE: 03=
AIRMET
Nincs érvényes távirat! 
WAHU41 LHBM 261640
LHCC AIRMET 01 VALID 261640/261800 LHBP-
LHCC BUDAPEST FIR SFC VIS 0200-1500M FG FZFG BCFG
WI N4834 E02030 - N4834 E02254 - N4700 E02142 -
N4654 E01941 - N4834 E02030 STNR NC=
SIGMET
Nincs érvényes távirat! 
WSHU31 LHBM 281045
LHCC SIGMET 04 VALID 281045/281245 LHBP-
LHCC BUDAPEST FIR SEV ICE FZRA FCST E OF E01930 AND N OF N4730
SFC/FL050 MOV ENE WKN=
SIGMET
Vulkáni hamufelhő
Nincs érvényes távirat! 
WVHU31 LHBM 271515 CCA
LHCC SIGMET 03 VALID 271515/271800 LHBP-
LHCC BUDAPEST FIR EXERCISE VOLCEX12/01
CNL VA SIGMET 02 271200/271800
EXERCISE EXERCISE EXERCISE VOLCEX12/01=